sensor_id;sensor_type;location;lat;lon;timestamp;P1;durP1;ratioP1;P2;durP2;ratioP2
72406;SDS011;60396;47.550;18.828;2024-02-26T00:01:53;26.58;;;13.23;;
72406;SDS011;60396;47.550;18.828;2024-02-26T00:04:22;27.20;;;13.93;;
72406;SDS011;60396;47.550;18.828;2024-02-26T00:06:50;27.45;;;14.07;;
72406;SDS011;60396;47.550;18.828;2024-02-26T00:09:19;28.35;;;14.82;;
72406;SDS011;60396;47.550;18.828;2024-02-26T00:11:47;29.27;;;14.67;;
72406;SDS011;60396;47.550;18.828;2024-02-26T00:14:15;30.62;;;15.27;;
72406;SDS011;60396;47.550;18.828;2024-02-26T00:16:43;32.30;;;16.23;;
72406;SDS011;60396;47.550;18.828;2024-02-26T00:19:13;29.02;;;15.18;;
72406;SDS011;60396;47.550;18.828;2024-02-26T00:21:41;29.17;;;15.10;;
72406;SDS011;60396;47.550;18.828;2024-02-26T00:24:10;29.60;;;15.33;;
72406;SDS011;60396;47.550;18.828;2024-02-26T00:26:38;31.98;;;16.25;;
72406;SDS011;60396;47.550;18.828;2024-02-26T00:29:06;32.00;;;15.55;;
72406;SDS011;60396;47.550;18.828;2024-02-26T00:31:34;29.70;;;15.30;;
72406;SDS011;60396;47.550;18.828;2024-02-26T00:34:04;31.60;;;16.15;;
72406;SDS011;60396;47.550;18.828;2024-02-26T00:36:32;32.93;;;16.20;;
72406;SDS011;60396;47.550;18.828;2024-02-26T00:39:00;32.97;;;15.88;;
72406;SDS011;60396;47.550;18.828;2024-02-26T00:41:29;33.85;;;17.30;;
72406;SDS011;60396;47.550;18.828;2024-02-26T00:43:57;31.92;;;15.90;;
72406;SDS011;60396;47.550;18.828;2024-02-26T00:46:25;31.67;;;16.73;;
72406;SDS011;60396;47.550;18.828;2024-02-26T00:48:53;31.97;;;15.77;;
72406;SDS011;60396;47.550;18.828;2024-02-26T00:51:21;31.05;;;15.45;;
72406;SDS011;60396;47.550;18.828;2024-02-26T00:53:52;30.25;;;15.27;;
72406;SDS011;60396;47.550;18.828;2024-02-26T00:56:21;28.87;;;14.18;;
72406;SDS011;60396;47.550;18.828;2024-02-26T00:58:49;26.37;;;13.20;;
72406;SDS011;60396;47.550;18.828;2024-02-26T01:01:17;28.90;;;13.20;;
72406;SDS011;60396;47.550;18.828;2024-02-26T01:03:45;28.15;;;14.63;;
72406;SDS011;60396;47.550;18.828;2024-02-26T01:06:13;27.60;;;13.15;;
72406;SDS011;60396;47.550;18.828;2024-02-26T01:08:42;26.92;;;13.00;;
72406;SDS011;60396;47.550;18.828;2024-02-26T01:11:11;27.60;;;13.27;;
72406;SDS011;60396;47.550;18.828;2024-02-26T01:13:39;23.60;;;12.07;;
72406;SDS011;60396;47.550;18.828;2024-02-26T01:16:07;25.05;;;12.98;;
72406;SDS011;60396;47.550;18.828;2024-02-26T01:18:35;27.10;;;12.52;;
72406;SDS011;60396;47.550;18.828;2024-02-26T01:21:03;24.98;;;12.52;;
72406;SDS011;60396;47.550;18.828;2024-02-26T01:23:34;23.50;;;11.60;;
72406;SDS011;60396;47.550;18.828;2024-02-26T01:26:03;23.03;;;11.10;;
72406;SDS011;60396;47.550;18.828;2024-02-26T01:28:32;22.25;;;11.38;;
72406;SDS011;60396;47.550;18.828;2024-02-26T01:30:59;21.30;;;10.90;;
72406;SDS011;60396;47.550;18.828;2024-02-26T01:33:28;21.35;;;11.15;;
72406;SDS011;60396;47.550;18.828;2024-02-26T01:35:56;20.73;;;10.57;;
72406;SDS011;60396;47.550;18.828;2024-02-26T01:38:24;23.47;;;11.17;;
72406;SDS011;60396;47.550;18.828;2024-02-26T01:40:52;20.05;;;10.43;;
72406;SDS011;60396;47.550;18.828;2024-02-26T01:43:20;19.25;;;9.80;;
72406;SDS011;60396;47.550;18.828;2024-02-26T01:45:48;19.02;;;9.77;;
72406;SDS011;60396;47.550;18.828;2024-02-26T01:48:17;20.85;;;10.23;;
72406;SDS011;60396;47.550;18.828;2024-02-26T01:50:45;17.23;;;8.70;;
72406;SDS011;60396;47.550;18.828;2024-02-26T01:53:13;18.80;;;9.75;;
72406;SDS011;60396;47.550;18.828;2024-02-26T01:55:41;21.37;;;10.02;;
72406;SDS011;60396;47.550;18.828;2024-02-26T01:58:10;20.95;;;10.13;;
72406;SDS011;60396;47.550;18.828;2024-02-26T02:00:39;20.17;;;9.95;;
72406;SDS011;60396;47.550;18.828;2024-02-26T02:03:07;19.67;;;10.03;;
72406;SDS011;60396;47.550;18.828;2024-02-26T02:05:35;18.17;;;9.80;;
72406;SDS011;60396;47.550;18.828;2024-02-26T02:08:13;21.35;;;10.18;;
72406;SDS011;60396;47.550;18.828;2024-02-26T02:10:41;19.62;;;9.95;;
72406;SDS011;60396;47.550;18.828;2024-02-26T02:13:10;22.40;;;10.57;;
72406;SDS011;60396;47.550;18.828;2024-02-26T02:15:38;23.23;;;11.13;;
72406;SDS011;60396;47.550;18.828;2024-02-26T02:18:06;23.50;;;11.02;;
72406;SDS011;60396;47.550;18.828;2024-02-26T02:20:35;23.33;;;12.25;;
72406;SDS011;60396;47.550;18.828;2024-02-26T02:23:03;24.63;;;11.55;;
72406;SDS011;60396;47.550;18.828;2024-02-26T02:25:31;23.50;;;11.73;;
72406;SDS011;60396;47.550;18.828;2024-02-26T02:28:00;22.27;;;11.40;;
72406;SDS011;60396;47.550;18.828;2024-02-26T02:30:29;21.60;;;10.70;;
72406;SDS011;60396;47.550;18.828;2024-02-26T02:32:57;26.65;;;12.32;;
72406;SDS011;60396;47.550;18.828;2024-02-26T02:35:29;27.48;;;12.37;;
72406;SDS011;60396;47.550;18.828;2024-02-26T02:37:57;25.12;;;13.00;;
72406;SDS011;60396;47.550;18.828;2024-02-26T02:40:26;24.27;;;12.47;;
72406;SDS011;60396;47.550;18.828;2024-02-26T02:42:54;32.90;;;12.68;;
72406;SDS011;60396;47.550;18.828;2024-02-26T02:45:22;27.25;;;13.13;;
72406;SDS011;60396;47.550;18.828;2024-02-26T02:47:50;25.55;;;13.13;;
72406;SDS011;60396;47.550;18.828;2024-02-26T02:50:19;26.25;;;12.73;;
72406;SDS011;60396;47.550;18.828;2024-02-26T02:52:48;23.47;;;11.70;;
72406;SDS011;60396;47.550;18.828;2024-02-26T02:55:17;26.48;;;11.73;;
72406;SDS011;60396;47.550;18.828;2024-02-26T02:57:46;21.30;;;11.10;;
72406;SDS011;60396;47.550;18.828;2024-02-26T03:00:14;23.77;;;10.80;;
72406;SDS011;60396;47.550;18.828;2024-02-26T03:02:42;21.75;;;11.52;;
72406;SDS011;60396;47.550;18.828;2024-02-26T03:05:13;21.13;;;11.43;;
72406;SDS011;60396;47.550;18.828;2024-02-26T03:07:41;22.00;;;10.57;;
72406;SDS011;60396;47.550;18.828;2024-02-26T03:10:09;19.75;;;10.23;;
72406;SDS011;60396;47.550;18.828;2024-02-26T03:12:37;23.23;;;10.15;;
72406;SDS011;60396;47.550;18.828;2024-02-26T03:15:05;19.40;;;9.20;;
72406;SDS011;60396;47.550;18.828;2024-02-26T03:17:33;20.87;;;10.03;;
72406;SDS011;60396;47.550;18.828;2024-02-26T03:20:02;19.83;;;9.80;;
72406;SDS011;60396;47.550;18.828;2024-02-26T03:22:32;20.83;;;9.48;;
72406;SDS011;60396;47.550;18.828;2024-02-26T03:25:00;22.50;;;9.75;;
72406;SDS011;60396;47.550;18.828;2024-02-26T03:27:29;17.45;;;9.35;;
72406;SDS011;60396;47.550;18.828;2024-02-26T03:29:57;20.87;;;8.77;;
72406;SDS011;60396;47.550;18.828;2024-02-26T03:32:27;17.92;;;9.43;;
72406;SDS011;60396;47.550;18.828;2024-02-26T03:34:56;18.12;;;8.75;;
72406;SDS011;60396;47.550;18.828;2024-02-26T03:37:24;18.00;;;8.85;;
72406;SDS011;60396;47.550;18.828;2024-02-26T03:39:52;17.00;;;8.63;;
72406;SDS011;60396;47.550;18.828;2024-02-26T03:42:20;16.23;;;8.50;;
72406;SDS011;60396;47.550;18.828;2024-02-26T03:44:49;16.95;;;7.95;;
72406;SDS011;60396;47.550;18.828;2024-02-26T03:47:16;16.80;;;8.57;;
72406;SDS011;60396;47.550;18.828;2024-02-26T03:49:45;18.02;;;8.70;;
72406;SDS011;60396;47.550;18.828;2024-02-26T03:52:13;17.27;;;8.30;;
72406;SDS011;60396;47.550;18.828;2024-02-26T03:54:42;16.50;;;7.77;;
72406;SDS011;60396;47.550;18.828;2024-02-26T03:57:10;13.50;;;5.87;;
72406;SDS011;60396;47.550;18.828;2024-02-26T03:59:39;15.75;;;6.30;;
72406;SDS011;60396;47.550;18.828;2024-02-26T04:02:07;13.10;;;6.00;;
72406;SDS011;60396;47.550;18.828;2024-02-26T04:04:37;12.93;;;5.37;;
72406;SDS011;60396;47.550;18.828;2024-02-26T04:07:05;12.07;;;5.47;;
72406;SDS011;60396;47.550;18.828;2024-02-26T04:09:34;11.77;;;5.75;;
72406;SDS011;60396;47.550;18.828;2024-02-26T04:12:02;10.45;;;5.03;;
72406;SDS011;60396;47.550;18.828;2024-02-26T04:14:30;10.18;;;4.28;;
72406;SDS011;60396;47.550;18.828;2024-02-26T04:16:58;12.77;;;4.35;;
72406;SDS011;60396;47.550;18.828;2024-02-26T04:19:26;12.13;;;4.67;;
72406;SDS011;60396;47.550;18.828;2024-02-26T04:21:54;12.43;;;4.30;;
72406;SDS011;60396;47.550;18.828;2024-02-26T04:24:22;10.93;;;4.50;;
72406;SDS011;60396;47.550;18.828;2024-02-26T04:26:50;10.52;;;4.22;;
72406;SDS011;60396;47.550;18.828;2024-02-26T04:29:18;11.82;;;4.28;;
72406;SDS011;60396;47.550;18.828;2024-02-26T04:31:46;12.43;;;4.60;;
72406;SDS011;60396;47.550;18.828;2024-02-26T04:34:16;9.48;;;4.03;;
72406;SDS011;60396;47.550;18.828;2024-02-26T04:36:43;9.68;;;4.05;;
72406;SDS011;60396;47.550;18.828;2024-02-26T04:39:12;10.10;;;4.62;;
72406;SDS011;60396;47.550;18.828;2024-02-26T04:41:40;10.63;;;4.40;;
72406;SDS011;60396;47.550;18.828;2024-02-26T04:44:08;12.23;;;4.83;;
72406;SDS011;60396;47.550;18.828;2024-02-26T04:46:36;9.35;;;4.25;;
72406;SDS011;60396;47.550;18.828;2024-02-26T04:49:04;12.52;;;5.35;;
72406;SDS011;60396;47.550;18.828;2024-02-26T04:51:32;10.20;;;4.32;;
72406;SDS011;60396;47.550;18.828;2024-02-26T04:54:00;12.55;;;5.07;;
72406;SDS011;60396;47.550;18.828;2024-02-26T04:56:29;10.67;;;5.27;;
72406;SDS011;60396;47.550;18.828;2024-02-26T04:58:56;11.27;;;5.28;;
72406;SDS011;60396;47.550;18.828;2024-02-26T05:01:24;11.70;;;5.25;;
72406;SDS011;60396;47.550;18.828;2024-02-26T05:03:53;12.93;;;5.18;;
72406;SDS011;60396;47.550;18.828;2024-02-26T05:06:21;11.80;;;4.93;;
72406;SDS011;60396;47.550;18.828;2024-02-26T05:08:50;10.97;;;5.67;;
72406;SDS011;60396;47.550;18.828;2024-02-26T05:11:18;11.07;;;4.90;;
72406;SDS011;60396;47.550;18.828;2024-02-26T05:13:47;12.50;;;6.30;;
72406;SDS011;60396;47.550;18.828;2024-02-26T05:16:15;10.88;;;5.12;;
72406;SDS011;60396;47.550;18.828;2024-02-26T05:18:44;11.88;;;5.70;;
72406;SDS011;60396;47.550;18.828;2024-02-26T05:21:13;13.67;;;5.77;;
72406;SDS011;60396;47.550;18.828;2024-02-26T05:23:41;16.17;;;5.87;;
72406;SDS011;60396;47.550;18.828;2024-02-26T05:26:12;12.98;;;5.93;;
72406;SDS011;60396;47.550;18.828;2024-02-26T05:28:47;13.20;;;6.05;;
72406;SDS011;60396;47.550;18.828;2024-02-26T05:31:17;12.02;;;5.75;;
72406;SDS011;60396;47.550;18.828;2024-02-26T05:33:45;11.13;;;5.70;;
72406;SDS011;60396;47.550;18.828;2024-02-26T05:36:18;10.93;;;5.40;;
72406;SDS011;60396;47.550;18.828;2024-02-26T05:38:51;12.43;;;5.68;;
72406;SDS011;60396;47.550;18.828;2024-02-26T05:41:19;13.25;;;6.43;;
72406;SDS011;60396;47.550;18.828;2024-02-26T05:43:51;10.20;;;5.28;;
72406;SDS011;60396;47.550;18.828;2024-02-26T05:46:23;12.83;;;5.73;;
72406;SDS011;60396;47.550;18.828;2024-02-26T05:48:52;12.20;;;5.55;;
72406;SDS011;60396;47.550;18.828;2024-02-26T05:51:21;11.12;;;4.80;;
72406;SDS011;60396;47.550;18.828;2024-02-26T05:53:49;12.02;;;4.90;;
72406;SDS011;60396;47.550;18.828;2024-02-26T05:56:22;11.43;;;5.47;;
72406;SDS011;60396;47.550;18.828;2024-02-26T05:58:51;14.77;;;5.97;;
72406;SDS011;60396;47.550;18.828;2024-02-26T06:01:19;11.38;;;5.55;;
72406;SDS011;60396;47.550;18.828;2024-02-26T06:03:49;11.25;;;5.45;;
72406;SDS011;60396;47.550;18.828;2024-02-26T06:06:17;12.20;;;6.00;;
72406;SDS011;60396;47.550;18.828;2024-02-26T06:08:46;13.68;;;6.47;;
72406;SDS011;60396;47.550;18.828;2024-02-26T06:11:17;13.57;;;6.43;;
72406;SDS011;60396;47.550;18.828;2024-02-26T06:14:07;12.57;;;7.12;;
72406;SDS011;60396;47.550;18.828;2024-02-26T06:16:36;14.45;;;7.12;;
72406;SDS011;60396;47.550;18.828;2024-02-26T06:19:03;13.93;;;6.55;;
72406;SDS011;60396;47.550;18.828;2024-02-26T06:21:31;14.63;;;7.25;;
72406;SDS011;60396;47.550;18.828;2024-02-26T06:23:59;15.43;;;7.03;;
72406;SDS011;60396;47.550;18.828;2024-02-26T06:26:27;12.43;;;6.53;;
72406;SDS011;60396;47.550;18.828;2024-02-26T06:28:57;11.63;;;5.87;;
72406;SDS011;60396;47.550;18.828;2024-02-26T06:31:25;12.82;;;4.97;;
72406;SDS011;60396;47.550;18.828;2024-02-26T06:33:54;9.90;;;4.90;;
72406;SDS011;60396;47.550;18.828;2024-02-26T06:36:23;10.53;;;4.63;;
72406;SDS011;60396;47.550;18.828;2024-02-26T06:38:51;9.52;;;4.43;;
72406;SDS011;60396;47.550;18.828;2024-02-26T06:41:21;9.68;;;4.55;;
72406;SDS011;60396;47.550;18.828;2024-02-26T06:43:54;10.90;;;4.95;;
72406;SDS011;60396;47.550;18.828;2024-02-26T06:46:22;10.23;;;5.25;;
72406;SDS011;60396;47.550;18.828;2024-02-26T06:48:50;10.77;;;5.57;;
72406;SDS011;60396;47.550;18.828;2024-02-26T06:51:22;11.43;;;5.50;;
72406;SDS011;60396;47.550;18.828;2024-02-26T06:53:50;11.02;;;4.87;;
72406;SDS011;60396;47.550;18.828;2024-02-26T06:56:18;10.95;;;4.90;;
72406;SDS011;60396;47.550;18.828;2024-02-26T06:58:45;11.00;;;5.45;;
72406;SDS011;60396;47.550;18.828;2024-02-26T07:01:13;12.83;;;4.77;;
72406;SDS011;60396;47.550;18.828;2024-02-26T07:03:41;14.43;;;5.62;;
72406;SDS011;60396;47.550;18.828;2024-02-26T07:06:09;13.32;;;5.45;;
72406;SDS011;60396;47.550;18.828;2024-02-26T07:08:36;14.57;;;5.90;;
72406;SDS011;60396;47.550;18.828;2024-02-26T07:11:07;14.45;;;6.68;;
72406;SDS011;60396;47.550;18.828;2024-02-26T07:13:36;14.27;;;7.00;;
72406;SDS011;60396;47.550;18.828;2024-02-26T07:16:04;15.23;;;7.22;;
72406;SDS011;60396;47.550;18.828;2024-02-26T07:18:32;15.63;;;7.53;;
72406;SDS011;60396;47.550;18.828;2024-02-26T07:21:02;15.95;;;8.18;;
72406;SDS011;60396;47.550;18.828;2024-02-26T07:23:31;17.23;;;8.48;;
72406;SDS011;60396;47.550;18.828;2024-02-26T07:25:59;15.80;;;7.97;;
72406;SDS011;60396;47.550;18.828;2024-02-26T07:28:26;19.10;;;9.75;;
72406;SDS011;60396;47.550;18.828;2024-02-26T07:30:54;18.58;;;9.10;;
72406;SDS011;60396;47.550;18.828;2024-02-26T07:33:22;19.80;;;9.13;;
72406;SDS011;60396;47.550;18.828;2024-02-26T07:35:50;17.37;;;9.18;;
72406;SDS011;60396;47.550;18.828;2024-02-26T07:38:18;19.10;;;9.80;;
72406;SDS011;60396;47.550;18.828;2024-02-26T07:41:03;18.30;;;9.82;;
72406;SDS011;60396;47.550;18.828;2024-02-26T07:43:30;19.85;;;10.35;;
72406;SDS011;60396;47.550;18.828;2024-02-26T07:45:58;19.60;;;9.90;;
72406;SDS011;60396;47.550;18.828;2024-02-26T07:48:26;21.62;;;11.63;;
72406;SDS011;60396;47.550;18.828;2024-02-26T07:50:53;19.87;;;10.70;;
72406;SDS011;60396;47.550;18.828;2024-02-26T07:53:21;23.05;;;11.10;;
72406;SDS011;60396;47.550;18.828;2024-02-26T07:55:49;22.25;;;12.00;;
72406;SDS011;60396;47.550;18.828;2024-02-26T07:58:17;23.10;;;12.88;;
72406;SDS011;60396;47.550;18.828;2024-02-26T08:00:44;21.05;;;11.27;;
72406;SDS011;60396;47.550;18.828;2024-02-26T08:03:14;22.30;;;12.30;;
72406;SDS011;60396;47.550;18.828;2024-02-26T08:05:43;19.87;;;11.35;;
72406;SDS011;60396;47.550;18.828;2024-02-26T08:08:11;21.92;;;11.75;;
72406;SDS011;60396;47.550;18.828;2024-02-26T08:10:39;22.62;;;11.32;;
72406;SDS011;60396;47.550;18.828;2024-02-26T08:13:06;20.67;;;11.05;;
72406;SDS011;60396;47.550;18.828;2024-02-26T08:15:37;20.00;;;10.10;;
72406;SDS011;60396;47.550;18.828;2024-02-26T08:18:05;22.05;;;10.73;;
72406;SDS011;60396;47.550;18.828;2024-02-26T08:20:33;19.77;;;10.82;;
72406;SDS011;60396;47.550;18.828;2024-02-26T08:23:00;21.45;;;11.35;;
72406;SDS011;60396;47.550;18.828;2024-02-26T08:25:28;19.10;;;10.52;;
72406;SDS011;60396;47.550;18.828;2024-02-26T08:27:56;17.63;;;9.73;;
72406;SDS011;60396;47.550;18.828;2024-02-26T08:30:23;20.60;;;11.23;;
72406;SDS011;60396;47.550;18.828;2024-02-26T08:32:51;20.08;;;10.15;;
72406;SDS011;60396;47.550;18.828;2024-02-26T08:35:20;18.80;;;10.05;;
72406;SDS011;60396;47.550;18.828;2024-02-26T08:37:47;19.87;;;11.15;;
72406;SDS011;60396;47.550;18.828;2024-02-26T08:40:16;19.97;;;11.33;;
72406;SDS011;60396;47.550;18.828;2024-02-26T08:42:43;18.75;;;10.18;;
72406;SDS011;60396;47.550;18.828;2024-02-26T08:45:11;17.50;;;9.45;;
72406;SDS011;60396;47.550;18.828;2024-02-26T08:47:40;19.12;;;9.70;;
72406;SDS011;60396;47.550;18.828;2024-02-26T08:50:08;17.83;;;10.05;;
72406;SDS011;60396;47.550;18.828;2024-02-26T08:52:37;17.17;;;8.93;;
72406;SDS011;60396;47.550;18.828;2024-02-26T08:55:05;20.40;;;10.25;;
72406;SDS011;60396;47.550;18.828;2024-02-26T08:57:33;16.98;;;8.95;;
72406;SDS011;60396;47.550;18.828;2024-02-26T09:00:01;18.48;;;8.55;;
72406;SDS011;60396;47.550;18.828;2024-02-26T09:02:29;15.75;;;8.20;;
72406;SDS011;60396;47.550;18.828;2024-02-26T09:04:57;15.40;;;8.47;;
72406;SDS011;60396;47.550;18.828;2024-02-26T09:07:25;15.20;;;7.87;;
72406;SDS011;60396;47.550;18.828;2024-02-26T09:09:53;16.27;;;8.43;;
72406;SDS011;60396;47.550;18.828;2024-02-26T09:12:21;16.05;;;8.57;;
72406;SDS011;60396;47.550;18.828;2024-02-26T09:14:49;16.50;;;9.55;;
72406;SDS011;60396;47.550;18.828;2024-02-26T09:17:17;14.47;;;7.87;;
72406;SDS011;60396;47.550;18.828;2024-02-26T09:19:44;14.55;;;8.05;;
72406;SDS011;60396;47.550;18.828;2024-02-26T09:22:12;18.02;;;7.78;;
72406;SDS011;60396;47.550;18.828;2024-02-26T09:24:45;17.75;;;6.80;;
72406;SDS011;60396;47.550;18.828;2024-02-26T09:27:12;11.98;;;6.82;;
72406;SDS011;60396;47.550;18.828;2024-02-26T09:29:40;13.43;;;6.30;;
72406;SDS011;60396;47.550;18.828;2024-02-26T09:32:08;14.43;;;7.25;;
72406;SDS011;60396;47.550;18.828;2024-02-26T09:34:35;13.65;;;7.40;;
72406;SDS011;60396;47.550;18.828;2024-02-26T09:37:04;16.20;;;7.43;;
72406;SDS011;60396;47.550;18.828;2024-02-26T09:39:44;14.48;;;7.93;;
72406;SDS011;60396;47.550;18.828;2024-02-26T09:42:13;12.40;;;6.87;;
72406;SDS011;60396;47.550;18.828;2024-02-26T09:44:41;15.70;;;8.00;;
72406;SDS011;60396;47.550;18.828;2024-02-26T09:47:10;19.00;;;8.70;;
72406;SDS011;60396;47.550;18.828;2024-02-26T09:49:40;16.60;;;9.07;;
72406;SDS011;60396;47.550;18.828;2024-02-26T09:52:10;16.17;;;9.43;;
72406;SDS011;60396;47.550;18.828;2024-02-26T09:54:38;16.00;;;8.73;;
72406;SDS011;60396;47.550;18.828;2024-02-26T09:57:06;15.70;;;9.52;;
72406;SDS011;60396;47.550;18.828;2024-02-26T09:59:42;17.77;;;10.35;;
72406;SDS011;60396;47.550;18.828;2024-02-26T10:02:11;18.08;;;9.90;;
72406;SDS011;60396;47.550;18.828;2024-02-26T10:04:41;19.20;;;11.23;;
72406;SDS011;60396;47.550;18.828;2024-02-26T10:07:12;18.10;;;11.00;;
72406;SDS011;60396;47.550;18.828;2024-02-26T10:09:41;18.12;;;9.35;;
72406;SDS011;60396;47.550;18.828;2024-02-26T10:12:09;16.20;;;10.05;;
72406;SDS011;60396;47.550;18.828;2024-02-26T10:14:38;18.35;;;10.60;;
72406;SDS011;60396;47.550;18.828;2024-02-26T10:17:06;16.15;;;10.05;;
72406;SDS011;60396;47.550;18.828;2024-02-26T10:19:36;16.03;;;9.60;;
72406;SDS011;60396;47.550;18.828;2024-02-26T10:22:06;15.23;;;9.15;;
72406;SDS011;60396;47.550;18.828;2024-02-26T10:24:33;17.87;;;8.65;;
72406;SDS011;60396;47.550;18.828;2024-02-26T10:27:04;14.57;;;8.23;;
72406;SDS011;60396;47.550;18.828;2024-02-26T10:29:32;15.60;;;8.10;;
72406;SDS011;60396;47.550;18.828;2024-02-26T10:32:00;15.93;;;8.53;;
72406;SDS011;60396;47.550;18.828;2024-02-26T10:34:27;13.32;;;7.65;;
72406;SDS011;60396;47.550;18.828;2024-02-26T10:36:56;15.27;;;8.23;;
72406;SDS011;60396;47.550;18.828;2024-02-26T10:39:23;13.13;;;6.22;;
72406;SDS011;60396;47.550;18.828;2024-02-26T10:41:51;11.80;;;5.80;;
72406;SDS011;60396;47.550;18.828;2024-02-26T10:44:20;12.83;;;7.43;;
72406;SDS011;60396;47.550;18.828;2024-02-26T10:46:47;13.75;;;7.35;;
72406;SDS011;60396;47.550;18.828;2024-02-26T10:49:18;15.30;;;7.68;;
72406;SDS011;60396;47.550;18.828;2024-02-26T10:51:56;14.50;;;7.60;;
72406;SDS011;60396;47.550;18.828;2024-02-26T10:54:27;15.70;;;5.65;;
72406;SDS011;60396;47.550;18.828;2024-02-26T10:56:57;11.83;;;5.90;;
72406;SDS011;60396;47.550;18.828;2024-02-26T10:59:28;11.95;;;6.18;;
72406;SDS011;60396;47.550;18.828;2024-02-26T11:01:56;11.65;;;6.30;;
72406;SDS011;60396;47.550;18.828;2024-02-26T11:04:24;11.27;;;6.00;;
72406;SDS011;60396;47.550;18.828;2024-02-26T11:06:55;12.63;;;6.30;;
72406;SDS011;60396;47.550;18.828;2024-02-26T11:09:24;11.93;;;5.60;;
72406;SDS011;60396;47.550;18.828;2024-02-26T11:11:53;10.38;;;4.80;;
72406;SDS011;60396;47.550;18.828;2024-02-26T11:14:22;9.98;;;5.53;;
72406;SDS011;60396;47.550;18.828;2024-02-26T11:16:54;9.15;;;5.35;;
72406;SDS011;60396;47.550;18.828;2024-02-26T11:19:23;10.35;;;4.18;;
72406;SDS011;60396;47.550;18.828;2024-02-26T11:21:52;11.67;;;4.13;;
72406;SDS011;60396;47.550;18.828;2024-02-26T11:24:19;9.25;;;3.67;;
72406;SDS011;60396;47.550;18.828;2024-02-26T11:26:51;8.27;;;3.95;;
72406;SDS011;60396;47.550;18.828;2024-02-26T11:29:47;8.75;;;3.22;;
72406;SDS011;60396;47.550;18.828;2024-02-26T11:32:16;8.50;;;3.20;;
72406;SDS011;60396;47.550;18.828;2024-02-26T11:34:44;8.13;;;3.17;;
72406;SDS011;60396;47.550;18.828;2024-02-26T11:37:16;7.28;;;2.87;;
72406;SDS011;60396;47.550;18.828;2024-02-26T11:39:45;7.32;;;3.05;;
72406;SDS011;60396;47.550;18.828;2024-02-26T11:42:13;11.00;;;3.83;;
72406;SDS011;60396;47.550;18.828;2024-02-26T11:44:42;11.52;;;4.70;;
72406;SDS011;60396;47.550;18.828;2024-02-26T11:47:19;9.20;;;4.40;;
72406;SDS011;60396;47.550;18.828;2024-02-26T11:49:48;17.08;;;6.20;;
72406;SDS011;60396;47.550;18.828;2024-02-26T11:52:16;10.43;;;4.75;;
72406;SDS011;60396;47.550;18.828;2024-02-26T11:57:28;13.70;;;4.85;;
72406;SDS011;60396;47.550;18.828;2024-02-26T12:02:47;9.38;;;4.50;;
72406;SDS011;60396;47.550;18.828;2024-02-26T12:05:19;12.32;;;4.72;;
72406;SDS011;60396;47.550;18.828;2024-02-26T12:07:55;10.75;;;4.72;;
72406;SDS011;60396;47.550;18.828;2024-02-26T12:10:24;9.50;;;4.97;;
72406;SDS011;60396;47.550;18.828;2024-02-26T12:13:05;13.00;;;5.70;;
72406;SDS011;60396;47.550;18.828;2024-02-26T12:15:38;13.07;;;5.57;;
72406;SDS011;60396;47.550;18.828;2024-02-26T12:18:15;13.52;;;6.30;;
72406;SDS011;60396;47.550;18.828;2024-02-26T12:20:44;12.63;;;6.15;;
72406;SDS011;60396;47.550;18.828;2024-02-26T12:23:15;12.27;;;5.82;;
72406;SDS011;60396;47.550;18.828;2024-02-26T12:25:45;11.43;;;6.53;;
72406;SDS011;60396;47.550;18.828;2024-02-26T12:28:15;11.20;;;6.00;;
72406;SDS011;60396;47.550;18.828;2024-02-26T12:30:43;12.40;;;6.60;;
72406;SDS011;60396;47.550;18.828;2024-02-26T12:33:10;17.12;;;9.73;;
72406;SDS011;60396;47.550;18.828;2024-02-26T12:35:38;15.13;;;8.23;;
72406;SDS011;60396;47.550;18.828;2024-02-26T12:38:06;12.80;;;6.03;;
72406;SDS011;60396;47.550;18.828;2024-02-26T12:40:34;11.10;;;6.12;;
72406;SDS011;60396;47.550;18.828;2024-02-26T12:43:01;12.18;;;6.28;;
72406;SDS011;60396;47.550;18.828;2024-02-26T12:45:29;12.80;;;5.80;;
72406;SDS011;60396;47.550;18.828;2024-02-26T12:47:57;11.40;;;5.93;;
72406;SDS011;60396;47.550;18.828;2024-02-26T12:50:26;10.20;;;5.70;;
72406;SDS011;60396;47.550;18.828;2024-02-26T12:52:54;11.57;;;5.50;;
72406;SDS011;60396;47.550;18.828;2024-02-26T12:55:22;8.88;;;4.80;;
72406;SDS011;60396;47.550;18.828;2024-02-26T12:57:50;10.00;;;4.97;;
72406;SDS011;60396;47.550;18.828;2024-02-26T13:00:25;10.02;;;4.62;;
72406;SDS011;60396;47.550;18.828;2024-02-26T13:02:54;9.03;;;4.10;;
72406;SDS011;60396;47.550;18.828;2024-02-26T13:05:23;9.60;;;4.75;;
72406;SDS011;60396;47.550;18.828;2024-02-26T13:07:50;8.88;;;4.93;;
72406;SDS011;60396;47.550;18.828;2024-02-26T13:10:20;10.73;;;4.55;;
72406;SDS011;60396;47.550;18.828;2024-02-26T13:12:48;9.27;;;4.30;;
72406;SDS011;60396;47.550;18.828;2024-02-26T13:15:21;9.47;;;4.73;;
72406;SDS011;60396;47.550;18.828;2024-02-26T13:17:49;11.23;;;5.07;;
72406;SDS011;60396;47.550;18.828;2024-02-26T13:20:27;10.68;;;5.12;;
72406;SDS011;60396;47.550;18.828;2024-02-26T13:23:14;9.68;;;4.50;;
72406;SDS011;60396;47.550;18.828;2024-02-26T13:25:42;9.10;;;4.80;;
72406;SDS011;60396;47.550;18.828;2024-02-26T13:28:13;9.73;;;5.10;;
72406;SDS011;60396;47.550;18.828;2024-02-26T13:30:53;8.85;;;4.15;;
72406;SDS011;60396;47.550;18.828;2024-02-26T13:33:24;10.40;;;5.30;;
72406;SDS011;60396;47.550;18.828;2024-02-26T13:35:57;10.20;;;5.25;;
72406;SDS011;60396;47.550;18.828;2024-02-26T13:38:25;15.60;;;7.53;;
72406;SDS011;60396;47.550;18.828;2024-02-26T13:40:54;9.20;;;4.67;;
72406;SDS011;60396;47.550;18.828;2024-02-26T13:43:22;10.90;;;5.12;;
72406;SDS011;60396;47.550;18.828;2024-02-26T13:45:50;10.25;;;4.30;;
72406;SDS011;60396;47.550;18.828;2024-02-26T13:48:18;8.88;;;5.35;;
72406;SDS011;60396;47.550;18.828;2024-02-26T13:50:46;10.25;;;5.43;;
72406;SDS011;60396;47.550;18.828;2024-02-26T13:53:14;9.73;;;5.27;;
72406;SDS011;60396;47.550;18.828;2024-02-26T13:55:42;11.15;;;5.47;;
72406;SDS011;60396;47.550;18.828;2024-02-26T13:58:11;11.07;;;5.72;;
72406;SDS011;60396;47.550;18.828;2024-02-26T14:00:41;9.95;;;5.60;;
72406;SDS011;60396;47.550;18.828;2024-02-26T14:03:10;9.68;;;4.90;;
72406;SDS011;60396;47.550;18.828;2024-02-26T14:05:38;9.03;;;4.97;;
72406;SDS011;60396;47.550;18.828;2024-02-26T14:08:06;12.20;;;5.53;;
72406;SDS011;60396;47.550;18.828;2024-02-26T14:10:34;8.70;;;5.05;;
72406;SDS011;60396;47.550;18.828;2024-02-26T14:13:03;9.88;;;5.07;;
72406;SDS011;60396;47.550;18.828;2024-02-26T14:15:30;9.45;;;5.60;;
72406;SDS011;60396;47.550;18.828;2024-02-26T14:18:01;10.63;;;5.63;;
72406;SDS011;60396;47.550;18.828;2024-02-26T14:20:30;11.23;;;5.25;;
72406;SDS011;60396;47.550;18.828;2024-02-26T14:22:58;9.52;;;5.65;;
72406;SDS011;60396;47.550;18.828;2024-02-26T14:25:26;10.73;;;5.53;;
72406;SDS011;60396;47.550;18.828;2024-02-26T14:27:57;9.32;;;5.10;;
72406;SDS011;60396;47.550;18.828;2024-02-26T14:30:26;8.83;;;4.40;;
72406;SDS011;60396;47.550;18.828;2024-02-26T14:32:54;10.75;;;4.30;;
72406;SDS011;60396;47.550;18.828;2024-02-26T14:35:22;9.02;;;4.25;;